createdAt,value
2022-10-20T00:06:58.829Z,4.35
2022-10-20T00:17:01.566Z,4.30
2022-10-20T00:27:03.374Z,5.10
2022-10-20T00:37:04.978Z,4.53
2022-10-20T00:47:11.852Z,4.40
2022-10-20T00:57:13.688Z,4.70
2022-10-20T01:07:16.372Z,4.30
2022-10-20T01:17:31.774Z,4.47
2022-10-20T01:27:48.883Z,3.83
2022-10-20T01:38:12.516Z,4.60
2022-10-20T01:48:18.317Z,3.80
2022-10-20T01:58:29.580Z,3.75
2022-10-20T02:09:02.315Z,3.75
2022-10-20T02:19:07.857Z,3.90
2022-10-20T02:29:15.874Z,4.13
2022-10-20T02:39:17.461Z,4.40
2022-10-20T02:49:20.565Z,4.20
2022-10-20T02:59:22.313Z,5.20
2022-10-20T03:09:24.104Z,6.93
2022-10-20T03:19:25.996Z,7.82
2022-10-20T03:29:32.850Z,6.28
2022-10-20T03:39:34.568Z,6.60
2022-10-20T03:49:36.148Z,7.60
2022-10-20T03:59:37.857Z,8.23
2022-10-20T04:09:39.542Z,9.02
2022-10-20T04:19:41.307Z,9.77
2022-10-20T04:29:43.011Z,9.90
2022-10-20T04:39:44.800Z,9.70
2022-10-20T04:49:46.574Z,8.90
2022-10-20T04:59:48.235Z,10.70
2022-10-20T05:09:49.763Z,11.30
2022-10-20T05:19:52.305Z,12.75
2022-10-20T05:29:55.160Z,11.80
2022-10-20T05:39:56.781Z,12.50
2022-10-20T05:49:58.368Z,12.07
2022-10-20T05:59:59.914Z,12.75
2022-10-20T06:10:01.659Z,12.85
2022-10-20T06:20:03.616Z,12.75
2022-10-20T06:30:05.832Z,11.43
2022-10-20T06:40:07.782Z,12.15
2022-10-20T06:50:09.718Z,10.48
2022-10-20T07:00:11.724Z,9.35
2022-10-20T07:10:13.390Z,11.50
2022-10-20T07:20:15.031Z,9.20
2022-10-20T07:30:17.916Z,8.45
2022-10-20T07:50:32.211Z,5.22
2022-10-20T08:00:33.989Z,4.72
2022-10-20T08:10:35.616Z,4.45
2022-10-20T08:20:42.258Z,4.88
2022-10-20T08:30:44.334Z,4.78
2022-10-20T08:40:46.007Z,5.77
2022-10-20T08:50:50.588Z,5.23
2022-10-20T09:01:01.225Z,4.53
2022-10-20T09:11:04.820Z,4.78
2022-10-20T09:21:21.990Z,3.50
2022-10-20T09:31:33.154Z,3.63
2022-10-20T09:41:36.094Z,4.10
2022-10-20T09:51:37.750Z,3.70
2022-10-20T10:01:56.790Z,4.03
2022-10-20T10:12:14.365Z,7.47
2022-10-20T10:22:17.120Z,3.50
2022-10-20T10:32:23.117Z,5.10
2022-10-20T10:42:48.683Z,4.13
2022-10-20T10:53:04.922Z,4.13
2022-10-20T11:03:12.108Z,4.18
2022-10-20T11:13:33.927Z,3.92
2022-10-20T11:23:52.123Z,3.67
2022-10-20T11:34:17.167Z,4.32
2022-10-20T11:44:35.114Z,3.47
2022-10-20T11:55:13.841Z,3.25
2022-10-20T12:05:21.849Z,2.45
2022-10-20T12:15:30.890Z,2.65
2022-10-20T12:25:41.490Z,5.25
2022-10-20T12:46:16.165Z,2.30
2022-10-20T12:56:21.831Z,2.13
2022-10-20T13:06:30.682Z,2.67
2022-10-20T13:16:34.094Z,3.80
2022-10-20T13:26:47.544Z,2.40
2022-10-20T13:37:01.327Z,2.40
2022-10-20T13:47:27.118Z,2.05
2022-10-20T13:57:35.004Z,2.72
2022-10-20T14:07:43.164Z,2.17
2022-10-20T14:17:55.781Z,3.08
2022-10-20T14:27:58.631Z,3.97
2022-10-20T14:38:09.962Z,2.40
2022-10-20T14:58:47.705Z,2.50
2022-10-20T15:08:57.882Z,2.50
2022-10-20T15:19:25.863Z,2.35
2022-10-20T15:29:27.877Z,3.70
2022-10-20T15:39:32.731Z,10.73
2022-10-20T15:49:34.674Z,6.85
2022-10-20T15:59:36.775Z,7.05
2022-10-20T16:09:39.519Z,4.40
2022-10-20T16:19:41.104Z,4.40
2022-10-20T16:29:45.172Z,5.07
2022-10-20T16:39:50.250Z,4.78
2022-10-20T16:50:01.257Z,5.47
2022-10-20T17:00:04.097Z,6.50
2022-10-20T17:10:06.952Z,7.00
2022-10-20T17:20:09.389Z,6.87
2022-10-20T17:30:12.269Z,7.17
2022-10-20T17:40:14.527Z,8.40
2022-10-20T17:50:17.427Z,7.80
2022-10-20T18:00:26.987Z,7.60
2022-10-20T18:10:45.872Z,7.82
2022-10-20T18:20:56.967Z,10.63
2022-10-20T18:31:12.838Z,12.40
2022-10-20T18:41:19.463Z,13.48
2022-10-20T18:51:22.687Z,14.77
2022-10-20T19:01:30.604Z,17.07
2022-10-20T19:11:37.592Z,17.40
2022-10-20T19:21:41.201Z,17.83
2022-10-20T19:31:49.961Z,19.38
2022-10-20T19:41:52.932Z,22.33
2022-10-20T19:51:56.041Z,21.80
2022-10-20T20:02:12.516Z,21.43
2022-10-20T20:12:16.231Z,19.92
2022-10-20T20:32:20.905Z,17.67
2022-10-20T20:42:22.699Z,20.38
2022-10-20T20:52:24.620Z,17.33
2022-10-20T21:02:26.237Z,18.90
2022-10-20T21:12:29.648Z,19.27
2022-10-20T21:22:33.474Z,19.02
2022-10-20T21:32:35.426Z,19.10
2022-10-20T21:42:37.708Z,19.67
2022-10-20T21:52:39.824Z,17.27
2022-10-20T22:02:42.906Z,19.00
2022-10-20T22:12:44.511Z,15.98
2022-10-20T22:22:48.191Z,20.48
2022-10-20T22:32:50.932Z,16.30
2022-10-20T22:42:52.853Z,17.20
2022-10-20T22:52:56.560Z,16.70
2022-10-20T23:02:58.180Z,16.60
2022-10-20T23:13:03.876Z,16.38
2022-10-20T23:23:05.435Z,20.42
2022-10-20T23:33:07.114Z,21.25
2022-10-20T23:43:08.810Z,22.35
2022-10-20T23:53:34.185Z,22.13
